Time;durP1;ratioP1;P1;durP2;ratioP2;P2;SDS_P1;SDS_P2;PMS_P1;PMS_P2;Temp;Humidity;BMP_temperature;BMP_pressure;BME280_temperature;BME280_humidity;BME280_pressure;Samples;Min_cycle;Max_cycle;Signal;HPM_P1;HPM_P2
2023/12/19 00:01:15;;;;;;;9.95;5.78;;;;;;;1.37;100.00;62136.44;5085119;28;20542;-78
2023/12/19 00:03:42;;;;;;;14.18;7.47;;;;;;;1.29;100.00;62130.22;5086317;28;20206;-78
2023/12/19 00:06:09;;;;;;;11.02;6.38;;;;;;;1.30;100.00;62131.75;5085263;28;20227;-79
2023/12/19 00:08:37;;;;;;;3.63;3.28;;;;;;;1.31;100.00;62132.78;5074454;28;20264;-77
2023/12/19 00:11:04;;;;;;;4.50;2.42;;;;;;;1.19;100.00;62118.47;5078566;28;20236;-77
2023/12/19 00:13:33;;;;;;;9.27;5.28;;;;;;;1.29;100.00;62130.75;5081013;28;20257;-79
2023/12/19 00:16:03;;;;;;;5.70;3.25;;;;;;;1.27;100.00;62130.66;5079553;28;20223;-79
2023/12/19 00:18:30;;;;;;;8.57;4.57;;;;;;;1.28;100.00;62132.22;5087468;28;20337;-78
2023/12/19 00:20:58;;;;;;;5.95;4.68;;;;;;;1.27;100.00;62128.16;5083671;28;20258;-78
2023/12/19 00:23:30;;;;;;;5.78;5.20;;;;;;;1.29;100.00;62130.22;5085203;28;20195;-79
2023/12/19 00:25:57;;;;;;;5.72;4.95;;;;;;;1.21;100.00;62125.03;5086573;28;20220;-77
2023/12/19 00:28:24;;;;;;;3.38;2.88;;;;;;;1.17;100.00;62118.94;5088019;28;20207;-78
2023/12/19 00:30:52;;;;;;;5.25;4.53;;;;;;;1.18;100.00;62122.47;5085900;28;20248;-78
2023/12/19 00:33:19;;;;;;;5.63;4.70;;;;;;;1.12;100.00;62113.28;5086119;28;20218;-80
2023/12/19 00:35:47;;;;;;;8.57;5.97;;;;;;;1.11;100.00;62112.25;5087509;28;20223;-79
2023/12/19 00:38:14;;;;;;;7.32;5.63;;;;;;;1.11;100.00;62109.75;5084849;28;20220;-79
2023/12/19 00:40:41;;;;;;;7.72;6.70;;;;;;;1.10;100.00;62106.72;5086426;28;20220;-80
2023/12/19 00:43:08;;;;;;;12.70;9.05;;;;;;;1.13;100.00;62114.84;5090668;28;20197;-79
2023/12/19 00:45:35;;;;;;;13.02;9.77;;;;;;;1.08;100.00;62106.69;5075675;28;20221;-78
2023/12/19 00:48:04;;;;;;;12.35;7.55;;;;;;;0.99;100.00;62097.97;5097215;28;20215;-79
2023/12/19 00:50:31;;;;;;;12.65;7.30;;;;;;;0.97;100.00;62098.41;5091740;28;20236;-79
2023/12/19 00:52:58;;;;;;;11.20;8.48;;;;;;;0.97;100.00;62095.91;5086832;28;20502;-78
2023/12/19 00:55:26;;;;;;;15.32;9.32;;;;;;;0.91;100.00;62094.25;5083479;28;20224;-80
2023/12/19 00:57:53;;;;;;;15.20;10.38;;;;;;;0.91;100.00;62094.78;5089172;28;20207;-78
2023/12/19 01:00:20;;;;;;;15.85;8.88;;;;;;;0.90;100.00;62088.22;5089385;28;20221;-79
2023/12/19 01:02:47;;;;;;;12.95;8.50;;;;;;;0.90;100.00;62088.22;5087054;28;20212;-79
2023/12/19 01:05:16;;;;;;;10.50;7.40;;;;;;;0.85;100.00;62088.63;5085754;28;20240;-79
2023/12/19 01:07:43;;;;;;;11.48;6.88;;;;;;;0.83;100.00;62086.56;5086353;28;20200;-80
2023/12/19 01:10:10;;;;;;;11.55;7.63;;;;;;;0.83;100.00;62083.53;5088235;28;20579;-78
2023/12/19 01:12:37;;;;;;;9.38;5.97;;;;;;;0.78;100.00;62080.91;5085467;28;20196;-79
2023/12/19 01:15:05;;;;;;;10.43;7.22;;;;;;;0.86;100.00;62091.63;5087971;28;20220;-79
2023/12/19 01:17:32;;;;;;;6.07;5.22;;;;;;;0.80;100.00;62080.97;5088361;28;20193;-80
2023/12/19 01:19:59;;;;;;;9.88;6.68;;;;;;;0.76;100.00;62076.38;5088312;28;20224;-79
2023/12/19 01:22:28;;;;;;;8.30;4.82;;;;;;;0.80;100.00;62082.97;5084335;28;20212;-79
2023/12/19 01:24:55;;;;;;;6.07;4.78;;;;;;;0.76;100.00;62076.38;5087309;28;20220;-79
2023/12/19 01:27:22;;;;;;;6.18;4.63;;;;;;;0.75;100.00;62075.84;5087229;28;20206;-80
2023/12/19 01:29:49;;;;;;;7.88;6.97;;;;;;;0.84;100.00;62082.06;5079557;28;20292;-80
2023/12/19 01:32:16;;;;;;;16.95;10.93;;;;;;;0.74;100.00;62072.31;5087681;28;20231;-79
2023/12/19 01:34:43;;;;;;;6.63;5.18;;;;;;;0.76;100.00;62076.38;5092150;28;20284;-79
2023/12/19 01:37:10;;;;;;;8.90;6.07;;;;;;;0.77;100.00;62077.91;5090005;28;20234;-80
2023/12/19 01:39:39;;;;;;;12.57;9.02;;;;;;;0.69;100.00;62069.19;5090795;28;20216;-80
2023/12/19 01:42:06;;;;;;;8.52;5.85;;;;;;;0.69;100.00;62069.69;5090506;28;20196;-80
2023/12/19 01:44:33;;;;;;;9.70;6.72;;;;;;;0.66;100.00;62068.59;5095275;28;20272;-81
2023/12/19 01:47:00;;;;;;;10.70;7.57;;;;;;;0.67;100.00;62069.66;5090194;28;20517;-80
2023/12/19 01:49:27;;;;;;;9.93;8.15;;;;;;;0.68;100.00;62071.19;5095383;28;20233;-80
2023/12/19 01:51:54;;;;;;;11.90;6.53;;;;;;;0.69;100.00;62064.19;5096123;28;20465;-80
2023/12/19 01:54:21;;;;;;;13.30;8.95;;;;;;;0.68;100.00;62068.69;5086007;28;20252;-79
2023/12/19 01:56:49;;;;;;;8.95;6.93;;;;;;;0.66;100.00;62064.13;5093320;28;20203;-79
2023/12/19 01:59:16;;;;;;;5.20;4.70;;;;;;;0.60;100.00;62063.00;5092219;28;20233;-79
2023/12/19 02:01:43;;;;;;;3.92;3.63;;;;;;;0.70;100.00;62070.22;5110256;28;20268;-79
2023/12/19 02:04:10;;;;;;;6.68;4.30;;;;;;;0.61;100.00;62064.00;5107671;28;20196;-78
2023/12/19 02:06:37;;;;;;;4.13;3.47;;;;;;;0.71;100.00;62074.25;5091285;28;20204;-79
2023/12/19 02:09:06;;;;;;;3.45;3.10;;;;;;;0.73;100.00;62075.78;5089794;28;20211;-81
2023/12/19 02:11:33;;;;;;;3.75;3.15;;;;;;;0.72;100.00;62072.78;5087087;28;20251;-80
2023/12/19 02:14:01;;;;;;;3.78;3.47;;;;;;;0.68;100.00;62068.16;5090756;28;20201;-78
2023/12/19 02:16:28;;;;;;;2.97;2.78;;;;;;;0.76;100.00;62076.38;5087921;28;20205;-79
2023/12/19 02:19:02;;;;;;;15.02;9.63;;;;;;;0.74;100.00;62079.81;5088888;28;20215;-78
2023/12/19 02:21:29;;;;;;;11.18;7.18;;;;;;;0.77;100.00;62082.91;5090451;28;20215;-80
2023/12/19 02:23:58;;;;;;;6.60;5.93;;;;;;;0.74;100.00;62072.31;5091477;28;20266;-79
2023/12/19 02:26:25;;;;;;;6.03;3.97;;;;;;;0.68;100.00;62073.16;5086829;28;20204;-79
2023/12/19 02:28:52;;;;;;;3.97;3.55;;;;;;;0.65;100.00;62065.09;5093910;28;20211;-81
2023/12/19 02:31:19;;;;;;;3.75;3.45;;;;;;;0.59;100.00;62059.44;5092476;28;20237;-81
2023/12/19 02:33:46;;;;;;;6.72;4.78;;;;;;;0.66;100.00;62071.63;5089325;28;20304;-78
2023/12/19 02:36:13;;;;;;;7.13;5.35;;;;;;;0.66;100.00;62061.63;5087527;28;20212;-79
2023/12/19 02:38:40;;;;;;;7.70;6.22;;;;;;;0.66;100.00;62064.13;5089690;28;20334;-79
2023/12/19 02:41:10;;;;;;;5.75;4.80;;;;;;;0.68;100.00;62070.66;5089340;28;20238;-80
2023/12/19 02:43:37;;;;;;;5.57;5.07;;;;;;;0.61;100.00;62060.97;5088637;28;20492;-80
2023/12/19 02:46:05;;;;;;;5.63;4.97;;;;;;;0.76;100.00;62076.38;5095725;28;20243;-81
2023/12/19 02:48:32;;;;;;;7.07;6.03;;;;;;;0.71;100.00;62071.22;5090403;28;20200;-80
2023/12/19 02:50:59;;;;;;;8.73;6.22;;;;;;;0.61;100.00;62063.47;5089491;28;20232;-81
2023/12/19 02:53:27;;;;;;;7.20;5.68;;;;;;;0.60;100.00;62062.47;5081345;28;20478;-81
2023/12/19 02:55:54;;;;;;;7.85;5.88;;;;;;;0.63;100.00;62063.56;5090914;28;20221;-80
2023/12/19 02:58:23;;;;;;;6.30;5.70;;;;;;;0.52;100.00;62049.75;5090407;28;20197;-82
2023/12/19 03:00:50;;;;;;;9.27;6.47;;;;;;;0.58;100.00;62058.44;5074158;28;20256;-81
2023/12/19 03:03:17;;;;;;;7.28;5.63;;;;;;;0.56;100.00;62055.84;5072702;28;20390;-79
2023/12/19 03:05:44;;;;;;;10.07;5.75;;;;;;;0.50;100.00;62047.72;5072174;28;20537;-80
2023/12/19 03:08:11;;;;;;;6.80;5.57;;;;;;;0.53;100.00;62053.31;5087297;28;20196;-79
2023/12/19 03:10:38;;;;;;;8.50;5.43;;;;;;;0.56;100.00;62056.38;5089466;28;20244;-80
2023/12/19 03:13:05;;;;;;;9.38;6.25;;;;;;;0.60;100.00;62059.97;5091994;28;20227;-79
2023/12/19 03:15:34;;;;;;;11.32;7.47;;;;;;;0.63;100.00;62066.06;5092651;28;20220;-80
2023/12/19 03:18:02;;;;;;;7.18;6.30;;;;;;;0.56;100.00;62058.34;5091329;28;20215;-81
2023/12/19 03:20:29;;;;;;;9.45;6.50;;;;;;;0.64;100.00;62069.56;5090526;28;20213;-82
2023/12/19 03:22:57;;;;;;;10.85;7.80;;;;;;;0.62;100.00;62062.00;5088274;28;20201;-79
2023/12/19 03:25:24;;;;;;;9.95;7.70;;;;;;;0.60;100.00;62068.00;5092014;28;20284;-81
2023/12/19 03:27:50;;;;;;;9.88;7.65;;;;;;;0.55;100.00;62052.34;5092001;28;20207;-80
2023/12/19 03:30:17;;;;;;;8.77;7.20;;;;;;;0.56;100.00;62058.88;5093846;28;20221;-81
2023/12/19 03:32:46;;;;;;;9.07;7.15;;;;;;;0.58;100.00;62057.91;5088054;28;20243;-80
2023/12/19 03:35:13;;;;;;;13.55;7.78;;;;;;;0.56;100.00;62056.38;5091457;28;20236;-80
2023/12/19 03:37:40;;;;;;;13.13;8.05;;;;;;;0.49;100.00;62046.19;5087327;28;20211;-81
2023/12/19 03:40:09;;;;;;;15.35;11.85;;;;;;;0.52;100.00;62051.78;5091394;28;20380;-81
2023/12/19 03:42:36;;;;;;;9.95;8.00;;;;;;;0.25;100.00;62026.56;5091840;28;20192;-80
2023/12/19 03:45:05;;;;;;;8.20;6.90;;;;;;;0.49;100.00;62049.19;5092494;28;20220;-81
2023/12/19 03:47:32;;;;;;;6.72;5.45;;;;;;;0.45;100.00;62044.59;5087967;28;20193;-81
2023/12/19 03:50:01;;;;;;;6.80;5.75;;;;;;;0.41;100.00;62041.00;5088580;28;20216;-80
2023/12/19 03:52:28;;;;;;;11.43;8.43;;;;;;;0.40;100.00;62039.97;5089703;28;20239;-80
2023/12/19 03:54:55;;;;;;;7.70;6.53;;;;;;;0.39;100.00;62035.94;5091099;28;20220;-80
2023/12/19 03:57:22;;;;;;;7.13;5.55;;;;;;;0.39;100.00;62038.94;5090761;28;20259;-79
2023/12/19 03:59:49;;;;;;;10.90;7.82;;;;;;;0.41;100.00;62041.00;5086759;28;20217;-80
2023/12/19 04:02:16;;;;;;;11.05;7.60;;;;;;;0.39;100.00;62038.94;5070818;28;20219;-81
2023/12/19 04:04:43;;;;;;;9.73;8.05;;;;;;;0.41;100.00;62041.00;5085086;28;20213;-80
2023/12/19 04:07:11;;;;;;;13.23;9.25;;;;;;;0.37;100.00;62036.91;5085575;28;20223;-80
2023/12/19 04:09:38;;;;;;;11.77;8.40;;;;;;;0.39;100.00;62035.94;5071030;28;21261;-79
2023/12/19 04:12:06;;;;;;;10.65;8.50;;;;;;;0.36;100.00;62035.34;5069945;28;20256;-81
2023/12/19 04:14:33;;;;;;;9.45;8.15;;;;;;;0.34;100.00;62031.31;5072472;28;20227;-80
2023/12/19 04:17:00;;;;;;;11.70;8.43;;;;;;;0.31;100.00;62027.72;5083741;28;20234;-81
2023/12/19 04:19:27;;;;;;;13.70;9.35;;;;;;;0.37;100.00;62036.91;5088253;28;20235;-79
2023/12/19 04:21:56;;;;;;;12.75;10.00;;;;;;;0.35;100.00;62034.84;5089544;28;20197;-80
2023/12/19 04:24:25;;;;;;;15.45;10.13;;;;;;;0.34;100.00;62035.81;5072991;28;20348;-79
2023/12/19 04:26:52;;;;;;;14.40;10.85;;;;;;;0.33;100.00;62032.78;5085784;28;20200;-77
2023/12/19 04:29:19;;;;;;;15.52;9.88;;;;;;;0.31;100.00;62030.25;5090122;28;20574;-80
2023/12/19 04:31:54;;;;;;;17.65;10.98;;;;;;;0.27;100.00;62026.13;5088087;28;20274;-81
2023/12/19 04:34:23;;;;;;;16.55;11.10;;;;;;;0.42;100.00;62046.50;5089352;28;20228;-79
2023/12/19 04:36:51;;;;;;;17.65;10.85;;;;;;;0.33;100.00;62034.78;5082649;28;20243;-79
2023/12/19 04:39:18;;;;;;;12.77;8.82;;;;;;;0.39;100.00;62033.94;5090455;28;20239;-81
2023/12/19 04:41:46;;;;;;;14.07;8.48;;;;;;;0.23;100.00;62020.03;5091794;28;20212;-80
2023/12/19 04:44:13;;;;;;;12.45;8.32;;;;;;;0.20;100.00;62019.47;5091484;28;20196;-79
2023/12/19 04:46:43;;;;;;;16.20;10.75;;;;;;;0.25;100.00;62026.56;5090356;28;20258;-80
2023/12/19 04:49:10;;;;;;;10.10;8.07;;;;;;;0.28;100.00;62024.66;5087990;28;20492;-80
2023/12/19 04:51:37;;;;;;;11.07;8.50;;;;;;;0.23;100.00;62019.53;5087381;28;20287;-81
2023/12/19 04:54:08;;;;;;;25.15;17.05;;;;;;;0.19;100.00;62020.94;5089800;28;20196;-80
2023/12/19 04:56:35;;;;;;;24.15;14.93;;;;;;;0.14;100.00;62012.81;5086437;28;20596;-80
2023/12/19 04:59:04;;;;;;;18.30;11.57;;;;;;;0.13;100.00;62009.28;5087996;28;20230;-80
2023/12/19 05:01:31;;;;;;;21.27;13.82;;;;;;;0.15;100.00;62013.84;5090244;28;20265;-82
2023/12/19 05:03:58;;;;;;;19.52;13.90;;;;;;;0.11;100.00;62012.75;5090632;28;20193;-81
2023/12/19 05:06:25;;;;;;;26.10;15.52;;;;;;;0.13;100.00;62011.78;5088117;28;20208;-80
2023/12/19 05:08:52;;;;;;;20.20;14.15;;;;;;;0.11;100.00;62007.22;5085691;28;20197;-82
2023/12/19 05:11:19;;;;;;;23.02;13.85;;;;;;;0.12;100.00;62008.78;5090344;28;20276;-82
2023/12/19 05:13:46;;;;;;;19.27;12.95;;;;;;;0.06;100.00;62007.63;5087570;28;20200;-80
2023/12/19 05:16:15;;;;;;;18.70;11.93;;;;;;;0.03;100.00;62002.06;5091155;28;20216;-82
2023/12/19 05:18:42;;;;;;;14.07;10.02;;;;;;;0.00;100.00;61996.97;5079439;28;20535;-81
2023/12/19 05:21:10;;;;;;;13.45;9.68;;;;;;;0.07;100.00;62006.13;5085183;28;20296;-83
2023/12/19 05:23:36;;;;;;;9.95;8.32;;;;;;;0.17;100.00;62018.91;5081827;28;20207;-83
2023/12/19 05:26:04;;;;;;;12.05;8.52;;;;;;;0.12;100.00;62010.75;5080372;28;20605;-82
2023/12/19 05:28:35;;;;;;;12.52;8.93;;;;;;;0.09;100.00;62007.69;5090034;28;20188;-81
2023/12/19 05:31:02;;;;;;;8.82;7.07;;;;;;;0.00;100.00;62001.97;5082255;28;20220;-82
2023/12/19 05:33:32;;;;;;;8.23;7.40;;;;;;;-0.02;100.00;61997.44;5080766;28;20228;-82
2023/12/19 05:35:59;;;;;;;12.18;8.55;;;;;;;-0.02;100.00;61997.44;5089792;28;20220;-81
2023/12/19 05:38:27;;;;;;;11.57;7.78;;;;;;;0.01;100.00;62002.50;5088428;28;20211;-79
2023/12/19 05:40:57;;;;;;;11.55;8.23;;;;;;;0.06;100.00;62009.59;5085888;28;20209;-80
2023/12/19 05:43:25;;;;;;;12.27;7.63;;;;;;;0.07;100.00;62003.13;5084537;28;20224;-80
2023/12/19 05:45:53;;;;;;;10.30;7.75;;;;;;;0.03;100.00;62004.56;5089551;28;20223;-80
2023/12/19 05:48:22;;;;;;;10.85;7.93;;;;;;;0.05;100.00;62003.59;5092521;28;20256;-81
2023/12/19 05:50:51;;;;;;;10.77;8.10;;;;;;;0.06;100.00;62002.09;5087687;28;20229;-81
2023/12/19 05:53:18;;;;;;;10.80;8.55;;;;;;;0.00;100.00;62001.97;5077081;28;20541;-80
2023/12/19 05:55:45;;;;;;;6.35;5.68;;;;;;;0.09;100.00;62007.69;5090000;28;20220;-80
2023/12/19 05:58:12;;;;;;;19.73;13.18;;;;;;;0.13;100.00;62012.28;5090287;28;20205;-78
2023/12/19 06:00:40;;;;;;;22.70;16.95;;;;;;;0.13;100.00;62009.28;5087368;28;20296;-80
2023/12/19 06:03:09;;;;;;;16.13;12.45;;;;;;;0.14;100.00;62015.31;5082562;28;20203;-80
2023/12/19 06:05:38;;;;;;;11.05;8.82;;;;;;;0.14;100.00;62013.31;5084763;28;20224;-81
2023/12/19 06:08:07;;;;;;;19.48;14.48;;;;;;;0.15;100.00;62019.34;5088379;28;20521;-80
2023/12/19 06:10:34;;;;;;;6.18;5.47;;;;;;;0.12;100.00;62010.75;5087819;28;20224;-80
2023/12/19 06:13:01;;;;;;;7.25;5.63;;;;;;;0.12;100.00;62008.78;5072157;28;20240;-81
2023/12/19 06:15:28;;;;;;;7.32;6.43;;;;;;;0.25;100.00;62027.09;5085199;28;20220;-80
2023/12/19 06:17:55;;;;;;;11.48;8.82;;;;;;;0.26;100.00;62025.63;5088891;28;20213;-80
2023/12/19 06:20:22;;;;;;;9.20;7.43;;;;;;;0.18;100.00;62014.91;5077801;28;20259;-80
2023/12/19 06:22:49;;;;;;;8.88;6.93;;;;;;;0.30;100.00;62026.69;5094613;28;20197;-81
2023/12/19 06:25:18;;;;;;;12.93;8.77;;;;;;;0.28;100.00;62027.16;5091684;28;20224;-80
2023/12/19 06:27:45;;;;;;;8.88;7.45;;;;;;;0.29;100.00;62028.69;5094573;28;20215;-81
2023/12/19 06:30:15;;;;;;;13.88;9.45;;;;;;;0.33;100.00;62029.78;5093975;28;20277;-80
2023/12/19 06:32:42;;;;;;;10.68;8.57;;;;;;;0.37;100.00;62033.88;5094074;28;20232;-80
2023/12/19 06:35:10;;;;;;;11.43;7.55;;;;;;;0.44;100.00;62046.06;5092979;28;20232;-80
2023/12/19 06:37:37;;;;;;;11.20;8.50;;;;;;;0.40;100.00;62039.97;5091484;28;20260;-80
2023/12/19 06:40:05;;;;;;;8.30;6.65;;;;;;;0.50;100.00;62050.22;5080911;28;20213;-80
2023/12/19 06:42:33;;;;;;;11.65;9.43;;;;;;;0.62;100.00;62065.03;5094282;28;20201;-81
2023/12/19 06:45:01;;;;;;;12.77;7.90;;;;;;;0.52;100.00;62051.78;5095256;28;20279;-82
2023/12/19 06:47:28;;;;;;;15.07;10.40;;;;;;;0.51;100.00;62053.25;5081225;28;20204;-80
2023/12/19 06:49:56;;;;;;;15.00;10.63;;;;;;;0.54;100.00;62054.31;5092214;28;20298;-82
2023/12/19 06:52:23;;;;;;;12.48;10.30;;;;;;;0.57;100.00;62059.91;5072944;28;20243;-81
2023/12/19 06:54:50;;;;;;;16.27;10.18;;;;;;;0.55;100.00;62055.34;5072724;28;20284;-82
2023/12/19 06:57:17;;;;;;;16.73;10.52;;;;;;;0.62;100.00;62067.03;5087670;28;20211;-81
2023/12/19 06:59:45;;;;;;;12.68;9.63;;;;;;;0.68;100.00;62073.16;5094316;28;20208;-82
2023/12/19 07:02:13;;;;;;;14.25;11.07;;;;;;;0.69;100.00;62069.69;5090965;28;20208;-81
2023/12/19 07:04:40;;;;;;;17.38;10.73;;;;;;;0.68;100.00;62071.19;5092972;28;20225;-80
2023/12/19 07:07:08;;;;;;;11.45;9.50;;;;;;;0.81;100.00;62081.50;5086347;28;20296;-83
2023/12/19 07:09:36;;;;;;;14.13;9.70;;;;;;;0.87;100.00;62080.13;5073458;28;20267;-81
2023/12/19 07:12:04;;;;;;;13.30;9.30;;;;;;;1.03;100.00;62104.56;5089856;28;20200;-82
2023/12/19 07:14:31;;;;;;;13.20;9.50;;;;;;;1.34;100.00;62137.84;5091248;28;20279;-81
2023/12/19 07:16:59;;;;;;;14.30;10.93;;;;;;;1.61;100.00;62158.56;5082199;28;20197;-79
2023/12/19 07:19:26;;;;;;;22.48;14.60;;;;;;;1.77;100.00;62180.00;5089709;28;20233;-81
2023/12/19 07:21:55;;;;;;;25.25;17.10;;;;;;;1.81;100.00;62181.06;5090373;28;20203;-82
2023/12/19 07:24:21;;;;;;;16.00;12.70;;;;;;;1.84;100.00;62189.69;5083432;28;20235;-79
2023/12/19 07:26:48;;;;;;;14.52;11.85;;;;;;;1.97;100.00;62205.53;5087288;28;20201;-80
2023/12/19 07:29:15;;;;;;;18.52;13.10;;;;;;;1.94;100.00;62197.44;5093182;28;20235;-80
2023/12/19 07:31:42;;;;;;;19.77;13.25;;;;;;;1.93;100.00;62198.91;5090447;28;20216;-80
2023/12/19 07:34:10;;;;;;;20.38;14.23;;;;;;;1.74;100.00;62178.91;5070959;28;20847;-79
2023/12/19 07:36:37;;;;;;;19.90;14.15;;;;;;;1.85;100.00;62190.72;5080537;28;20200;-79
2023/12/19 07:39:05;;;;;;;19.10;13.05;;;;;;;1.84;100.00;62189.16;5090587;28;20201;-80
2023/12/19 07:41:32;;;;;;;32.90;22.58;;;;;;;1.82;100.00;62185.13;5085828;28;20205;-80
2023/12/19 07:44:01;;;;;;;20.48;16.48;;;;;;;1.79;100.00;62186.56;5090237;28;20224;-80
2023/12/19 07:46:28;;;;;;;21.45;13.45;;;;;;;1.71;100.00;62173.31;5089640;28;20193;-81
2023/12/19 07:48:56;;;;;;;19.88;13.23;;;;;;;1.77;100.00;62179.47;5091680;28;20259;-80
2023/12/19 07:51:24;;;;;;;22.23;16.17;;;;;;;1.81;100.00;62183.59;5086466;28;20209;-78
2023/12/19 07:53:51;;;;;;;19.85;14.13;;;;;;;1.90;100.00;62193.34;5068343;28;20260;-81
2023/12/19 07:56:18;;;;;;;21.00;14.90;;;;;;;1.99;100.00;62204.56;5075780;28;20247;-80
2023/12/19 07:58:45;;;;;;;31.30;15.15;;;;;;;1.98;100.00;62206.56;5088190;28;20201;-79
2023/12/19 08:01:12;;;;;;;22.80;14.48;;;;;;;1.92;100.00;62197.38;5073837;28;20235;-79
2023/12/19 08:03:40;;;;;;;18.27;13.82;;;;;;;1.89;100.00;62194.81;5078681;28;20427;-80
2023/12/19 08:06:07;;;;;;;20.92;14.30;;;;;;;1.85;100.00;62188.19;5084638;28;20292;-80
2023/12/19 08:08:36;;;;;;;21.40;14.90;;;;;;;1.96;100.00;62198.97;5081616;28;20247;-81
2023/12/19 08:11:03;;;;;;;19.08;14.43;;;;;;;2.01;100.00;62207.16;5082454;28;20559;-79
2023/12/19 08:13:30;;;;;;;20.05;14.05;;;;;;;2.12;100.00;62213.41;5079748;28;20224;-80
2023/12/19 08:15:56;;;;;;;14.70;10.93;;;;;;;1.99;100.00;62205.09;5083168;28;20220;-78
2023/12/19 08:18:23;;;;;;;15.45;10.70;;;;;;;2.22;100.00;62221.19;5078896;28;20211;-79
2023/12/19 08:20:50;;;;;;;17.08;12.80;;;;;;;2.22;100.00;62226.19;5081754;28;20216;-78
2023/12/19 08:23:19;;;;;;;16.58;10.02;;;;;;;2.24;100.00;62230.75;5079293;28;20236;-78
2023/12/19 08:26:01;;;;;;;;;;;;;;;;;;;;;
2023/12/19 08:28:30;;;;;;;14.60;11.15;;;;;;;2.31;100.00;62230.41;5085331;28;20373;-78
2023/12/19 08:31:11;;;;;;;27.73;19.27;;;;;;;2.02;100.00;62200.13;5087489;28;20233;-77
2023/12/19 08:33:41;;;;;;;33.15;21.73;;;;;;;2.31;100.00;62234.94;5077269;28;20224;-77
2023/12/19 08:36:10;;;;;;;34.70;23.77;;;;;;;2.44;100.00;62247.75;5082642;28;20223;-76
2023/12/19 08:38:36;;;;;;;28.77;21.10;;;;;;;2.42;100.00;62243.72;5081376;28;20192;-78
2023/12/19 08:41:05;;;;;;;32.15;21.75;;;;;;;2.50;100.00;62256.44;5083463;28;20233;-77
2023/12/19 08:43:32;;;;;;;31.35;22.17;;;;;;;2.61;100.00;62268.25;5072083;28;20193;-76
2023/12/19 08:45:59;;;;;;;32.70;22.25;;;;;;;2.66;100.00;62272.88;5081283;28;20220;-75
2023/12/19 08:48:26;;;;;;;29.70;21.95;;;;;;;2.74;100.00;62273.56;5083600;28;20404;-77
2023/12/19 08:50:53;;;;;;;31.48;22.85;;;;;;;2.85;100.00;62292.91;5077189;28;20256;-78
2023/12/19 08:53:20;;;;;;;35.70;24.27;;;;;;;2.83;100.00;62295.88;5081721;28;20287;-76
2023/12/19 08:55:47;;;;;;;33.55;23.45;;;;;;;2.86;100.00;62293.94;5089221;28;20354;-76
2023/12/19 08:58:15;;;;;;;33.72;23.52;;;;;;;2.98;100.00;62300.72;5095993;28;20204;-75
2023/12/19 09:00:42;;;;;;;38.72;24.70;;;;;;;2.96;100.00;62301.69;5083481;28;20386;-76
2023/12/19 09:03:09;;;;;;;37.65;22.48;;;;;;;2.98;100.00;62301.25;5084894;28;20220;-76
2023/12/19 09:05:36;;;;;;;35.60;23.50;;;;;;;3.05;100.00;62310.44;5081442;28;20231;-76
2023/12/19 09:08:04;;;;;;;31.83;23.25;;;;;;;3.06;100.00;62313.97;5083915;28;20205;-76
2023/12/19 09:10:30;;;;;;;33.47;24.20;;;;;;;3.11;100.00;62319.09;5083462;28;20229;-76
2023/12/19 09:12:57;;;;;;;36.78;24.40;;;;;;;3.07;100.00;62318.03;5086722;28;20240;-75
2023/12/19 09:15:25;;;;;;;30.98;22.75;;;;;;;3.08;100.00;62314.03;5077378;28;20220;-75
2023/12/19 09:17:52;;;;;;;33.22;23.13;;;;;;;3.06;100.00;62314.50;5077545;28;20196;-76
2023/12/19 09:20:21;;;;;;;34.70;23.00;;;;;;;3.16;100.00;62324.75;5076700;28;20447;-76
2023/12/19 09:22:48;;;;;;;31.35;23.33;;;;;;;3.31;100.00;62337.16;5079388;28;20405;-76
2023/12/19 09:25:15;;;;;;;31.95;23.35;;;;;;;3.39;100.00;62350.94;5082131;28;20536;-76
2023/12/19 09:27:42;;;;;;;34.70;23.85;;;;;;;3.35;100.00;62339.28;5080740;28;20524;-76
2023/12/19 09:30:11;;;;;;;40.65;24.10;;;;;;;3.38;100.00;62341.84;5077806;28;20229;-76
2023/12/19 09:32:40;;;;;;;36.90;24.05;;;;;;;3.53;100.00;62362.81;5075887;28;20216;-76
2023/12/19 09:35:09;;;;;;;32.53;24.55;;;;;;;3.46;100.00;62353.09;5078999;28;20287;-76
2023/12/19 09:37:38;;;;;;;39.25;25.15;;;;;;;3.54;100.00;62360.81;5076650;28;20256;-76
2023/12/19 09:40:06;;;;;;;35.88;26.02;;;;;;;3.50;100.00;62359.22;5075817;28;20221;-76
2023/12/19 09:42:34;;;;;;;44.38;27.80;;;;;;;3.49;100.00;62358.69;5078830;28;20211;-77
2023/12/19 09:45:00;;;;;;;40.42;27.38;;;;;;;3.58;100.00;62366.91;5079084;28;20228;-76
2023/12/19 09:52:55;;;;;;;42.95;30.27;;;;;;;4.22;100.00;62430.22;5112254;27;20727;-76
2023/12/19 09:55:22;;;;;;;47.53;31.17;;;;;;;4.16;100.00;62424.56;5114980;28;20262;-76
2023/12/19 09:57:49;;;;;;;46.20;29.80;;;;;;;4.23;100.00;62431.25;5107612;28;20350;-76
2023/12/19 10:00:18;;;;;;;42.10;30.63;;;;;;;4.41;100.00;62452.81;5112319;28;20230;-75
2023/12/19 10:02:45;;;;;;;41.97;29.92;;;;;;;4.49;100.00;62461.06;5103769;28;20261;-76
2023/12/19 10:05:11;;;;;;;51.72;31.20;;;;;;;4.49;100.00;62456.00;5102152;28;20546;-76
2023/12/19 10:07:37;;;;;;;42.80;29.70;;;;;;;4.48;100.00;62462.56;5106898;28;20207;-76
2023/12/19 10:10:11;;;;;;;47.08;31.80;;;;;;;4.52;100.00;62461.63;5118148;28;20234;-75
2023/12/19 10:12:47;;;;;;;47.75;32.15;;;;;;;4.59;100.00;62473.88;5107837;28;20226;-76
2023/12/19 10:15:15;;;;;;;45.10;31.63;;;;;;;4.68;100.00;62480.63;5113922;28;20217;-77
2023/12/19 10:17:44;;;;;;;49.35;32.17;;;;;;;4.83;100.00;62495.56;5109355;28;20510;-76
2023/12/19 10:20:12;;;;;;;47.67;33.25;;;;;;;4.94;100.00;62503.81;5117498;28;20211;-76
2023/12/19 10:22:39;;;;;;;54.05;34.90;;;;;;;4.91;100.00;62498.72;5110912;28;20200;-77
2023/12/19 10:25:09;;;;;;;52.38;34.80;;;;;;;5.07;100.00;62514.69;5110720;28;20224;-76
2023/12/19 10:27:36;;;;;;;52.70;34.60;;;;;;;5.16;100.00;62527.00;5119469;28;20204;-77
2023/12/19 10:30:17;;;;;;;51.03;33.88;;;;;;;5.04;100.00;62519.69;5117996;28;20528;-77
2023/12/19 10:32:46;;;;;;;57.58;35.45;;;;;;;4.88;100.00;62498.16;5119387;28;20239;-76
2023/12/19 10:35:13;;;;;;;63.03;38.95;;;;;;;5.02;100.00;62512.06;5106511;28;20416;-77
2023/12/19 10:37:40;;;;;;;57.15;37.67;;;;;;;5.04;100.00;62509.59;5101979;28;20200;-77
2023/12/19 10:40:14;;;;;;;57.08;36.65;;;;;;;4.96;100.00;62508.41;5108422;28;20276;-77
2023/12/19 10:42:41;;;;;;;58.78;34.95;;;;;;;4.99;100.00;62508.97;5105686;28;20204;-77
2023/12/19 10:45:08;;;;;;;56.88;37.42;;;;;;;4.98;100.00;62505.41;5108089;28;20281;-77
2023/12/19 10:47:36;;;;;;;60.45;36.70;;;;;;;5.09;100.00;62519.78;5107754;28;20211;-79
2023/12/19 10:50:03;;;;;;;59.03;37.88;;;;;;;5.20;100.00;62533.13;5109586;28;20406;-78
2023/12/19 10:52:30;;;;;;;59.83;38.08;;;;;;;5.25;100.00;62535.75;5104318;28;20224;-77
2023/12/19 10:55:01;;;;;;;58.63;36.65;;;;;;;5.36;100.00;62544.56;5106332;28;20235;-78
2023/12/19 10:57:30;;;;;;;54.92;36.55;;;;;;;5.51;100.00;62560.00;5120876;28;20196;-78
2023/12/19 10:59:59;;;;;;;55.10;37.08;;;;;;;5.55;100.00;62569.19;5112039;28;20780;-78
2023/12/19 11:02:36;;;;;;;55.72;36.70;;;;;;;5.68;100.00;62577.50;5105950;28;20498;-78
2023/12/19 11:05:10;;;;;;;48.35;31.30;;;;;;;5.81;100.00;62595.97;5100923;28;20383;-78
2023/12/19 11:07:37;;;;;;;47.90;33.42;;;;;;;5.89;100.00;62601.69;5089791;28;20456;-76
2023/12/19 11:10:05;;;;;;;50.33;32.67;;;;;;;5.90;100.00;62605.28;5095526;28;20303;-79
2023/12/19 11:12:34;;;;;;;55.10;34.80;;;;;;;6.00;100.00;62610.53;5087230;28;20236;-77
2023/12/19 11:15:01;;;;;;;59.80;36.65;;;;;;;6.09;100.00;62621.81;5089982;28;20243;-77
2023/12/19 11:17:30;;;;;;;59.00;37.90;;;;;;;6.11;100.00;62629.44;5101647;28;20271;-78
2023/12/19 11:20:01;;;;;;;57.53;36.85;;;;;;;6.14;100.00;62630.00;5088121;28;20228;-77
2023/12/19 11:22:32;;;;;;;55.33;35.35;;;;;;;6.11;100.00;62626.91;5087403;28;20212;-78
2023/12/19 11:25:03;;;;;;;54.22;35.75;;;;;;;6.18;100.00;62631.09;5095712;28;20252;-77
2023/12/19 11:27:38;;;;;;;57.35;33.78;;;;;;;6.13;100.00;62626.44;5107068;28;20218;-78
2023/12/19 11:30:07;;;;;;;52.60;33.83;;;;;;;6.11;100.00;62623.88;5108857;28;20281;-79
2023/12/19 11:32:41;;;;;;;57.20;34.47;;;;;;;6.20;100.00;62640.72;5101050;28;20242;-79